Time,TemperatureF,DewpointF,PressureIn,WindDirection,WindDirectionDegrees,WindSpeedMPH,WindSpeedGustMPH,Humidity,HourlyPrecipIn,Conditions,Clouds,dailyrainin,SoftwareType,DateUTC
2013-04-10 00:01:00,62.5,57.6,30.14,North,8,0.0,0.0,84,0.00,CLR,OVC,0.00,WeatherDisplay:10.37,2013-04-10 04:01:00,
2013-04-10 00:06:00,62.4,57.5,30.15,North,8,0.0,0.0,84,0.00,CLR,OVC,0.00,WeatherDisplay:10.37,2013-04-10 04:06:00,
2013-04-10 00:11:00,62.3,57.7,30.14,North,8,0.0,0.0,85,0.00,CLR,OVC,0.00,WeatherDisplay:10.37,2013-04-10 04:11:00,
2013-04-10 00:16:00,62.1,57.5,30.14,North,8,0.0,0.0,85,0.00,CLR,OVC,0.00,WeatherDisplay:10.37,2013-04-10 04:16:00,
2013-04-10 00:21:00,61.9,57.3,30.14,North,8,0.0,0.0,85,0.00,CLR,OVC,0.00,WeatherDisplay:10.37,2013-04-10 04:21:00,
2013-04-10 00:26:00,61.5,56.9,30.14,North,8,0.0,0.0,85,0.00,CLR,OVC,0.00,WeatherDisplay:10.37,2013-04-10 04:26:00,
2013-04-10 00:31:00,61.3,57.1,30.14,North,8,0.0,0.0,86,0.00,CLR,OVC,0.00,WeatherDisplay:10.37,2013-04-10 04:31:00,
2013-04-10 00:36:00,61.2,57.0,30.14,North,8,0.0,0.0,86,0.00,CLR,OVC,0.00,WeatherDisplay:10.37,2013-04-10 04:36:00,
2013-04-10 00:41:00,61.2,57.0,30.14,North,8,0.0,0.0,86,0.00,CLR,OVC,0.00,WeatherDisplay:10.37,2013-04-10 04:41:00,
2013-04-10 00:46:00,61.1,56.9,30.14,North,8,0.0,0.0,86,0.00,CLR,OVC,0.00,WeatherDisplay:10.37,2013-04-10 04:46:00,
2013-04-10 00:51:00,61.0,56.8,30.14,North,8,0.0,0.0,86,0.00,CLR,OVC,0.00,WeatherDisplay:10.37,2013-04-10 04:51:00,
2013-04-10 00:56:00,60.9,56.7,30.13,North,8,0.0,0.0,86,0.00,CLR,OVC,0.00,WeatherDisplay:10.37,2013-04-10 04:56:00,
2013-04-10 01:01:00,60.8,56.9,30.13,North,8,0.0,0.0,87,0.00,CLR,OVC,0.00,WeatherDisplay:10.37,2013-04-10 05:01:00,
2013-04-10 01:06:00,60.6,56.7,30.13,North,7,0.0,0.0,87,0.00,CLR,OVC,0.00,WeatherDisplay:10.37,2013-04-10 05:06:00,
2013-04-10 01:11:00,60.5,56.6,30.13,North,8,0.0,0.0,87,0.00,CLR,OVC,0.00,WeatherDisplay:10.37,2013-04-10 05:11:00,
2013-04-10 01:16:00,60.3,56.4,30.13,North,8,0.0,0.0,87,0.00,CLR,OVC,0.00,WeatherDisplay:10.37,2013-04-10 05:16:00,
2013-04-10 01:21:00,60.1,56.2,30.13,North,8,0.0,0.0,87,0.00,CLR,OVC,0.00,WeatherDisplay:10.37,2013-04-10 05:21:00,
2013-04-10 01:26:00,59.9,56.0,30.13,North,8,0.0,0.0,87,0.00,CLR,OVC,0.00,WeatherDisplay:10.37,2013-04-10 05:26:00,
2013-04-10 01:31:00,59.8,55.9,30.12,North,8,1.1,1.1,87,0.00,CLR,OVC,0.00,WeatherDisplay:10.37,2013-04-10 05:31:00,
2013-04-10 01:36:00,59.7,56.1,30.12,North,8,0.0,0.0,88,0.00,CLR,OVC,0.00,WeatherDisplay:10.37,2013-04-10 05:36:00,
2013-04-10 01:41:00,59.6,56.0,30.12,North,8,0.0,0.0,88,0.00,CLR,OVC,0.00,WeatherDisplay:10.37,2013-04-10 05:41:00,
2013-04-10 01:46:00,59.5,55.9,30.12,North,8,0.0,0.0,88,0.00,CLR,OVC,0.00,WeatherDisplay:10.37,2013-04-10 05:46:00,
2013-04-10 01:51:00,59.4,55.8,30.12,North,8,0.0,0.0,88,0.00,CLR,OVC,0.00,WeatherDisplay:10.37,2013-04-10 05:51:00,
2013-04-10 01:56:00,59.3,55.7,30.12,North,8,0.0,0.0,88,0.00,CLR,OVC,0.00,WeatherDisplay:10.37,2013-04-10 05:56:00,
2013-04-10 02:01:00,59.1,55.5,30.12,North,8,0.0,0.0,88,0.00,CLR,OVC,0.00,WeatherDisplay:10.37,2013-04-10 06:01:00,
2013-04-10 02:06:00,58.9,55.4,30.11,North,8,0.0,0.0,88,0.00,CLR,OVC,0.00,WeatherDisplay:10.37,2013-04-10 06:06:00,
2013-04-10 02:11:00,58.9,55.4,30.11,North,8,0.0,0.0,88,0.00,CLR,OVC,0.00,WeatherDisplay:10.37,2013-04-10 06:11:00,
2013-04-10 02:16:00,58.8,55.3,30.10,North,8,0.0,0.0,88,0.00,CLR,OVC,0.00,WeatherDisplay:10.37,2013-04-10 06:16:00,
2013-04-10 02:21:00,58.6,55.1,30.10,North,8,0.0,0.0,88,0.00,CLR,OVC,0.00,WeatherDisplay:10.37,2013-04-10 06:21:00,
2013-04-10 02:26:00,58.5,55.0,30.10,North,8,0.0,0.0,88,0.00,CLR,OVC,0.00,WeatherDisplay:10.37,2013-04-10 06:26:00,
2013-04-10 02:31:00,58.3,54.8,30.10,North,7,0.0,0.0,88,0.00,CLR,OVC,0.00,WeatherDisplay:10.37,2013-04-10 06:31:00,
2013-04-10 02:36:00,58.0,54.5,30.10,North,8,0.0,0.0,88,0.00,CLR,OVC,0.00,WeatherDisplay:10.37,2013-04-10 06:36:00,
2013-04-10 02:41:00,58.0,54.5,30.10,North,8,0.0,0.0,88,0.00,CLR,OVC,0.00,WeatherDisplay:10.37,2013-04-10 06:41:00,
2013-04-10 02:46:00,57.9,54.4,30.09,North,7,0.0,0.0,88,0.00,CLR,OVC,0.00,WeatherDisplay:10.37,2013-04-10 06:46:00,
2013-04-10 02:51:00,57.7,54.2,30.09,North,8,0.0,0.0,88,0.00,CLR,OVC,0.00,WeatherDisplay:10.37,2013-04-10 06:51:00,
2013-04-10 02:56:00,57.7,54.5,30.09,North,8,0.0,0.0,89,0.00,CLR,OVC,0.00,WeatherDisplay:10.37,2013-04-10 06:56:00,
2013-04-10 03:01:00,57.7,54.5,30.09,North,8,0.0,0.0,89,0.00,CLR,OVC,0.00,WeatherDisplay:10.37,2013-04-10 07:01:00,
2013-04-10 03:06:00,57.6,54.4,30.09,North,8,0.0,0.0,89,0.00,CLR,OVC,0.00,WeatherDisplay:10.37,2013-04-10 07:06:00,
2013-04-10 03:11:00,57.6,54.4,30.09,North,8,0.0,0.0,89,0.00,CLR,OVC,0.00,WeatherDisplay:10.37,2013-04-10 07:11:00,
2013-04-10 03:16:00,57.6,54.4,30.09,North,8,0.0,0.0,89,0.00,CLR,OVC,0.00,WeatherDisplay:10.37,2013-04-10 07:16:00,
2013-04-10 03:21:00,57.5,54.3,30.09,North,8,0.0,0.0,89,0.00,CLR,OVC,0.00,WeatherDisplay:10.37,2013-04-10 07:21:00,
2013-04-10 03:26:00,57.4,54.2,30.09,North,8,0.0,0.0,89,0.00,CLR,OVC,0.00,WeatherDisplay:10.37,2013-04-10 07:26:00,
2013-04-10 03:31:00,57.4,54.2,30.09,North,8,0.0,0.0,89,0.00,CLR,OVC,0.00,WeatherDisplay:10.37,2013-04-10 07:31:00,
2013-04-10 03:36:00,57.3,54.1,30.09,North,8,0.0,0.0,89,0.00,CLR,OVC,0.00,WeatherDisplay:10.37,2013-04-10 07:36:00,
2013-04-10 03:41:00,57.3,54.1,30.09,North,8,0.0,0.0,89,0.00,CLR,OVC,0.00,WeatherDisplay:10.37,2013-04-10 07:41:00,
2013-04-10 03:46:00,57.4,54.2,30.09,North,7,0.0,0.0,89,0.00,CLR,OVC,0.00,WeatherDisplay:10.37,2013-04-10 07:46:00,
2013-04-10 03:51:00,57.4,54.2,30.09,North,7,0.0,0.0,89,0.00,CLR,OVC,0.00,WeatherDisplay:10.37,2013-04-10 07:51:00,
2013-04-10 03:56:00,57.4,54.2,30.08,North,8,0.0,0.0,89,0.00,CLR,OVC,0.00,WeatherDisplay:10.37,2013-04-10 07:56:00,
2013-04-10 04:01:00,57.2,54.0,30.08,North,7,0.0,0.0,89,0.00,CLR,OVC,0.00,WeatherDisplay:10.37,2013-04-10 08:01:00,
2013-04-10 04:06:00,57.1,53.9,30.09,North,8,0.0,0.0,89,0.00,CLR,OVC,0.00,WeatherDisplay:10.37,2013-04-10 08:06:00,
2013-04-10 04:11:00,57.0,53.8,30.08,North,8,0.0,0.0,89,0.00,CLR,OVC,0.00,WeatherDisplay:10.37,2013-04-10 08:11:00,
2013-04-10 04:16:00,57.1,53.9,30.09,North,7,0.0,0.0,89,0.00,CLR,OVC,0.00,WeatherDisplay:10.37,2013-04-10 08:16:00,
2013-04-10 04:21:00,57.1,53.9,30.09,North,7,0.0,0.0,89,0.00,CLR,OVC,0.00,WeatherDisplay:10.37,2013-04-10 08:21:00,
2013-04-10 04:26:00,57.1,53.9,30.09,North,8,0.0,0.0,89,0.00,CLR,OVC,0.00,WeatherDisplay:10.37,2013-04-10 08:26:00,
2013-04-10 04:31:00,57.0,53.8,30.09,North,8,0.0,0.0,89,0.00,CLR,OVC,0.00,WeatherDisplay:10.37,2013-04-10 08:31:00,
2013-04-10 04:36:00,56.9,53.7,30.09,North,8,0.0,0.0,89,0.00,CLR,OVC,0.00,WeatherDisplay:10.37,2013-04-10 08:36:00,
2013-04-10 04:41:00,56.8,53.6,30.09,North,7,0.0,0.0,89,0.00,CLR,OVC,0.00,WeatherDisplay:10.37,2013-04-10 08:41:00,
2013-04-10 04:46:00,56.9,53.7,30.09,North,8,0.0,0.0,89,0.00,CLR,OVC,0.00,WeatherDisplay:10.37,2013-04-10 08:46:00,
2013-04-10 04:51:00,56.8,53.6,30.09,North,8,0.0,0.0,89,0.00,CLR,OVC,0.00,WeatherDisplay:10.37,2013-04-10 08:51:00,
2013-04-10 04:56:00,56.8,53.6,30.09,North,8,0.0,0.0,89,0.00,CLR,OVC,0.00,WeatherDisplay:10.37,2013-04-10 08:56:00,
2013-04-10 05:01:00,56.8,53.6,30.09,North,8,0.0,0.0,89,0.00,FEW,OVC,0.00,WeatherDisplay:10.37,2013-04-10 09:01:00,
2013-04-10 05:06:00,56.8,53.6,30.09,North,8,0.0,0.0,89,0.00,FEW,OVC,0.00,WeatherDisplay:10.37,2013-04-10 09:06:00,
2013-04-10 05:11:00,56.7,53.5,30.09,North,8,0.0,0.0,89,0.00,FEW,OVC,0.00,WeatherDisplay:10.37,2013-04-10 09:11:00,
2013-04-10 05:16:00,56.6,53.4,30.09,North,7,0.0,0.0,89,0.00,FEW,OVC,0.00,WeatherDisplay:10.37,2013-04-10 09:16:00,
2013-04-10 05:21:00,56.7,53.5,30.09,North,8,0.0,0.0,89,0.00,FEW,OVC,0.00,WeatherDisplay:10.37,2013-04-10 09:21:00,
2013-04-10 05:26:00,56.6,53.4,30.09,North,8,0.0,0.0,89,0.00,FEW,OVC,0.00,WeatherDisplay:10.37,2013-04-10 09:26:00,
2013-04-10 05:31:00,56.5,53.3,30.08,North,8,0.0,0.0,89,0.00,FEW,OVC,0.00,WeatherDisplay:10.37,2013-04-10 09:31:00,
2013-04-10 05:36:00,56.5,53.3,30.09,North,8,0.0,0.0,89,0.00,FEW,OVC,0.00,WeatherDisplay:10.37,2013-04-10 09:36:00,
2013-04-10 05:41:00,56.3,53.1,30.09,North,8,0.0,0.0,89,0.00,FEW,OVC,0.00,WeatherDisplay:10.37,2013-04-10 09:41:00,
2013-04-10 05:46:00,56.3,53.1,30.09,North,8,0.0,0.0,89,0.00,FEW,OVC,0.00,WeatherDisplay:10.37,2013-04-10 09:46:00,
2013-04-10 05:51:00,56.3,53.1,30.09,North,8,0.0,0.0,89,0.00,FEW,OVC,0.00,WeatherDisplay:10.37,2013-04-10 09:51:00,
2013-04-10 05:54:00,56.3,53.1,30.09,North,8,0.0,0.0,89,0.00,FEW,OVC,0.00,WeatherDisplay:10.37,2013-04-10 09:54:00,
2013-04-10 05:56:00,56.3,53.1,30.09,North,8,0.0,0.0,89,0.00,FEW,OVC,0.00,WeatherDisplay:10.37,2013-04-10 09:56:00,
2013-04-10 06:01:00,56.3,53.1,30.09,North,8,0.0,0.0,89,0.00,FEW,OVC,0.00,WeatherDisplay:10.37,2013-04-10 10:01:00,
2013-04-10 06:07:00,56.2,53.0,30.09,North,8,0.0,0.0,89,0.00,CLR,OVC,0.00,WeatherDisplay:10.37,2013-04-10 10:07:00,
2013-04-10 06:12:00,56.2,53.0,30.09,North,8,0.0,0.0,89,0.00,FEW,OVC,0.00,WeatherDisplay:10.37,2013-04-10 10:12:00,
2013-04-10 06:17:00,56.2,53.0,30.09,North,7,0.0,0.0,89,0.00,CLR,OVC,0.00,WeatherDisplay:10.37,2013-04-10 10:17:00,
2013-04-10 06:22:00,56.1,52.9,30.09,North,8,0.0,0.0,89,0.00,CLR,OVC,0.00,WeatherDisplay:10.37,2013-04-10 10:22:00,
2013-04-10 06:27:00,56.1,52.9,30.09,North,8,0.0,0.0,89,0.00,CLR,OVC,0.00,WeatherDisplay:10.37,2013-04-10 10:27:00,
2013-04-10 06:32:00,56.1,52.9,30.09,North,8,0.0,0.0,89,0.00,CLR,OVC,0.00,WeatherDisplay:10.37,2013-04-10 10:32:00,
2013-04-10 06:37:00,56.0,52.8,30.09,North,8,0.0,0.0,89,0.00,CLR,OVC,0.00,WeatherDisplay:10.37,2013-04-10 10:37:00,
2013-04-10 06:42:00,56.0,52.8,30.08,North,8,0.0,0.0,89,0.00,CLR,OVC,0.00,WeatherDisplay:10.37,2013-04-10 10:42:00,
2013-04-10 06:47:00,56.0,52.8,30.09,North,8,0.0,0.0,89,0.00,CLR,OVC,0.00,WeatherDisplay:10.37,2013-04-10 10:47:00,
2013-04-10 06:52:00,55.9,52.7,30.09,North,8,0.0,0.0,89,0.00,CLR,OVC,0.00,WeatherDisplay:10.37,2013-04-10 10:52:00,
2013-04-10 06:57:00,55.9,52.7,30.09,North,7,0.0,0.0,89,0.00,CLR,OVC,0.00,WeatherDisplay:10.37,2013-04-10 10:57:00,
2013-04-10 07:02:00,55.8,52.6,30.09,North,7,0.0,0.0,89,0.00,CLR,OVC,0.00,WeatherDisplay:10.37,2013-04-10 11:02:00,
2013-04-10 07:07:00,55.8,52.6,30.09,North,8,0.0,0.0,89,0.00,CLR,OVC,0.00,WeatherDisplay:10.37,2013-04-10 11:07:00,
2013-04-10 07:12:00,55.8,52.6,30.09,North,7,0.0,0.0,89,0.00,CLR,OVC,0.00,WeatherDisplay:10.37,2013-04-10 11:12:00,
2013-04-10 07:17:00,55.8,52.6,30.09,North,7,0.0,0.0,89,0.00,CLR,OVC,0.00,WeatherDisplay:10.37,2013-04-10 11:17:00,
2013-04-10 07:22:00,55.8,52.6,30.09,North,7,0.0,0.0,89,0.00,CLR,OVC,0.00,WeatherDisplay:10.37,2013-04-10 11:22:00,
2013-04-10 07:27:00,55.8,52.6,30.09,North,7,0.0,0.0,89,0.00,CLR,OVC,0.00,WeatherDisplay:10.37,2013-04-10 11:27:00,
2013-04-10 07:32:00,55.9,52.7,30.09,North,7,0.0,0.0,89,0.00,CLR,OVC,0.00,WeatherDisplay:10.37,2013-04-10 11:32:00,
2013-04-10 07:37:00,56.1,52.9,30.09,North,3,0.0,0.0,89,0.00,CLR,OVC,0.00,WeatherDisplay:10.37,2013-04-10 11:37:00,
2013-04-10 07:42:00,56.3,53.1,30.09,North,3,0.0,0.0,89,0.00,CLR,OVC,0.00,WeatherDisplay:10.37,2013-04-10 11:42:00,
2013-04-10 07:47:00,56.4,53.2,30.09,North,3,0.0,0.0,89,0.00,CLR,OVC,0.00,WeatherDisplay:10.37,2013-04-10 11:47:00,
2013-04-10 07:52:00,56.6,53.4,30.09,North,3,0.0,0.0,89,0.00,CLR,OVC,0.00,WeatherDisplay:10.37,2013-04-10 11:52:00,
2013-04-10 07:57:00,56.7,53.5,30.09,North,4,0.0,0.0,89,0.00,CLR,OVC,0.00,WeatherDisplay:10.37,2013-04-10 11:57:00,
2013-04-10 08:02:00,57.0,53.8,30.09,North,4,0.0,0.0,89,0.00,CLR,OVC,0.00,WeatherDisplay:10.37,2013-04-10 12:02:00,
2013-04-10 08:07:00,57.2,54.0,30.10,North,3,0.0,0.0,89,0.00,CLR,OVC,0.00,WeatherDisplay:10.37,2013-04-10 12:07:00,
2013-04-10 08:12:00,57.6,54.4,30.09,North,3,0.0,0.0,89,0.00,CLR,OVC,0.00,WeatherDisplay:10.37,2013-04-10 12:12:00,
2013-04-10 08:17:00,58.0,54.8,30.09,North,4,0.0,0.0,89,0.00,CLR,OVC,0.00,WeatherDisplay:10.37,2013-04-10 12:17:00,
2013-04-10 08:22:00,58.6,55.7,30.10,North,4,0.0,0.0,90,0.00,CLR,OVC,0.00,WeatherDisplay:10.37,2013-04-10 12:22:00,
2013-04-10 08:27:00,59.1,56.2,30.10,North,4,0.0,0.0,90,0.00,CLR,OVC,0.00,WeatherDisplay:10.37,2013-04-10 12:27:00,
2013-04-10 08:32:00,59.9,57.0,30.10,North,3,0.0,0.0,90,0.00,CLR,OVC,0.00,WeatherDisplay:10.37,2013-04-10 12:32:00,
2013-04-10 08:37:00,60.5,57.6,30.10,North,2,0.0,0.0,90,0.00,CLR,OVC,0.00,WeatherDisplay:10.37,2013-04-10 12:37:00,
2013-04-10 08:42:00,61.4,58.4,30.10,North,357,0.0,0.0,90,0.00,CLR,OVC,0.00,WeatherDisplay:10.37,2013-04-10 12:42:00,
2013-04-10 08:47:00,62.1,59.1,30.10,North,357,0.0,0.0,90,0.00,CLR,OVC,0.00,WeatherDisplay:10.37,2013-04-10 12:47:00,
2013-04-10 08:52:00,63.0,60.0,30.10,North,357,0.0,0.0,90,0.00,CLR,OVC,0.00,WeatherDisplay:10.37,2013-04-10 12:52:00,
2013-04-10 08:57:00,63.6,60.9,30.10,North,357,0.0,0.0,91,0.00,CLR,OVC,0.00,WeatherDisplay:10.37,2013-04-10 12:57:00,
2013-04-10 09:02:00,64.3,61.6,30.10,North,353,0.0,0.0,91,0.00,CLR,OVC,0.00,WeatherDisplay:10.37,2013-04-10 13:02:00,
2013-04-10 09:07:00,64.9,62.2,30.10,NNW,348,0.0,0.0,91,0.00,CLR,OVC,0.00,WeatherDisplay:10.37,2013-04-10 13:07:00,
2013-04-10 09:12:00,65.4,62.7,30.10,NNW,347,0.0,0.0,91,0.00,CLR,OVC,0.00,WeatherDisplay:10.37,2013-04-10 13:12:00,
2013-04-10 09:17:00,65.8,63.1,30.11,NNW,341,0.0,0.0,91,0.00,CLR,OVC,0.00,WeatherDisplay:10.37,2013-04-10 13:17:00,
2013-04-10 09:22:00,66.2,63.2,30.10,North,358,1.0,1.0,90,0.00,CLR,OVC,0.00,WeatherDisplay:10.37,2013-04-10 13:22:00,
2013-04-10 09:27:00,66.8,63.8,30.10,NNE,22,0.0,0.0,90,0.00,CLR,OVC,0.00,WeatherDisplay:10.37,2013-04-10 13:27:00,
2013-04-10 09:32:00,67.3,64.3,30.10,NNE,22,0.0,0.0,90,0.00,CLR,OVC,0.00,WeatherDisplay:10.37,2013-04-10 13:32:00,
2013-04-10 09:37:00,67.9,64.5,30.10,NNE,28,0.0,0.0,89,0.00,CLR,OVC,0.00,WeatherDisplay:10.37,2013-04-10 13:37:00,
2013-04-10 09:42:00,68.6,65.2,30.11,NNE,13,0.0,0.0,89,0.00,CLR,OVC,0.00,WeatherDisplay:10.37,2013-04-10 13:42:00,
2013-04-10 09:47:00,69.3,65.6,30.11,NNE,15,0.0,0.0,88,0.00,CLR,OVC,0.00,WeatherDisplay:10.37,2013-04-10 13:47:00,
2013-04-10 09:52:00,70.3,65.9,30.11,SSE,166,1.1,1.1,86,0.00,CLR,OVC,0.00,WeatherDisplay:10.37,2013-04-10 13:52:00,
2013-04-10 09:57:00,71.3,66.2,30.11,SSE,166,2.3,2.3,84,0.00,CLR,OVC,0.00,WeatherDisplay:10.37,2013-04-10 13:57:00,
2013-04-10 10:02:00,72.0,66.2,30.11,SSE,166,1.1,1.1,82,0.00,CLR,OVC,0.00,WeatherDisplay:10.37,2013-04-10 14:02:00,
2013-04-10 10:07:00,72.6,66.1,30.11,WSW,239,0.0,0.0,80,0.00,CLR,OVC,0.00,WeatherDisplay:10.37,2013-04-10 14:07:00,
2013-04-10 10:12:00,73.1,66.6,30.11,NE,56,3.4,0.0,80,0.00,CLR,OVC,0.00,WeatherDisplay:10.37,2013-04-10 14:12:00,
2013-04-10 10:17:00,73.7,66.4,30.11,SSW,194,2.3,2.3,78,0.00,CLR,OVC,0.00,WeatherDisplay:10.37,2013-04-10 14:17:00,
2013-04-10 10:22:00,73.9,65.9,30.11,South,188,3.4,3.4,76,0.00,CLR,OVC,0.00,WeatherDisplay:10.37,2013-04-10 14:22:00,
2013-04-10 10:27:00,73.7,66.0,30.11,SSE,163,2.3,2.3,77,0.00,CLR,OVC,0.00,WeatherDisplay:10.37,2013-04-10 14:27:00,
2013-04-10 10:32:00,73.9,65.5,30.11,SSE,154,3.4,3.4,75,0.00,CLR,OVC,0.00,WeatherDisplay:10.37,2013-04-10 14:32:00,
2013-04-10 10:37:00,74.4,65.6,30.11,South,176,3.4,3.4,74,0.00,CLR,OVC,0.00,WeatherDisplay:10.37,2013-04-10 14:37:00,
2013-04-10 10:42:00,75.2,65.6,30.11,SSE,157,3.4,3.4,72,0.00,CLR,OVC,0.00,WeatherDisplay:10.37,2013-04-10 14:42:00,
2013-04-10 10:47:00,75.9,66.2,30.11,SE,145,1.1,1.1,72,0.00,CLR,OVC,0.00,WeatherDisplay:10.37,2013-04-10 14:47:00,
2013-04-10 10:52:00,76.4,66.3,30.11,ESE,106,3.4,3.4,71,0.00,CLR,OVC,0.00,WeatherDisplay:10.37,2013-04-10 14:52:00,
2013-04-10 10:57:00,76.8,65.9,30.11,East,100,3.4,3.4,69,0.00,CLR,OVC,0.00,WeatherDisplay:10.37,2013-04-10 14:57:00,
2013-04-10 11:02:00,76.6,66.1,30.11,SSE,156,3.4,3.4,70,0.00,CLR,OVC,0.00,WeatherDisplay:10.37,2013-04-10 15:02:00,
2013-04-10 11:04:00,76.6,66.1,30.10,SSE,154,3.0,3.0,70,0.00,CLR,OVC,0.00,WeatherDisplay:10.37,2013-04-10 15:04:00,
2013-04-10 11:07:00,76.6,66.1,30.10,SSE,154,3.0,3.0,70,0.00,CLR,OVC,0.00,WeatherDisplay:10.37,2013-04-10 15:07:00,
2013-04-10 11:12:00,76.6,66.1,30.10,SSE,154,3.0,3.0,70,0.00,CLR,OVC,0.00,WeatherDisplay:10.37,2013-04-10 15:12:00,
2013-04-10 11:18:00,77.4,65.1,30.10,SSE,153,3.0,3.0,66,0.00,CLR,OVC,0.00,WeatherDisplay:10.37,2013-04-10 15:18:00,
2013-04-10 11:23:00,78.0,65.7,30.10,SSE,157,2.3,2.3,66,0.00,CLR,OVC,0.00,WeatherDisplay:10.37,2013-04-10 15:23:00,
2013-04-10 11:28:00,77.9,65.2,30.10,SSE,147,2.3,2.3,65,0.00,CLR,OVC,0.00,WeatherDisplay:10.37,2013-04-10 15:28:00,
2013-04-10 11:33:00,77.8,65.5,30.10,South,185,2.3,2.3,66,0.00,CLR,OVC,0.00,WeatherDisplay:10.37,2013-04-10 15:33:00,
2013-04-10 11:38:00,78.1,65.4,30.10,SSE,163,4.0,4.0,65,0.00,CLR,OVC,0.00,WeatherDisplay:10.37,2013-04-10 15:38:00,
2013-04-10 11:43:00,78.1,65.4,30.10,West,268,1.1,1.1,65,0.00,CLR,OVC,0.00,WeatherDisplay:10.37,2013-04-10 15:43:00,
2013-04-10 11:48:00,78.1,64.9,30.10,SSE,157,2.3,2.3,64,0.00,CLR,OVC,0.00,WeatherDisplay:10.37,2013-04-10 15:48:00,
2013-04-10 11:53:00,79.1,65.0,30.10,SSE,162,3.4,3.4,62,0.00,CLR,OVC,0.00,WeatherDisplay:10.37,2013-04-10 15:53:00,
2013-04-10 11:58:00,79.3,65.1,30.10,NW,319,2.3,2.3,62,0.00,CLR,OVC,0.00,WeatherDisplay:10.37,2013-04-10 15:58:00,
2013-04-10 12:03:00,79.1,65.0,30.10,North,5,1.1,1.1,62,0.00,FEW,OVC,0.00,WeatherDisplay:10.37,2013-04-10 16:03:00,
2013-04-10 12:08:00,79.1,64.5,30.10,SSE,148,2.3,2.3,61,0.00,FEW,OVC,0.00,WeatherDisplay:10.37,2013-04-10 16:08:00,
2013-04-10 12:13:00,79.4,63.8,30.10,South,181,3.4,3.4,59,0.00,FEW,OVC,0.00,WeatherDisplay:10.37,2013-04-10 16:13:00,
2013-04-10 12:18:00,79.5,62.4,30.10,South,186,3.4,3.4,56,0.00,FEW,OVC,0.00,WeatherDisplay:10.37,2013-04-10 16:18:00,
2013-04-10 12:23:00,79.6,63.5,30.09,South,175,3.4,3.4,58,0.00,FEW,OVC,0.00,WeatherDisplay:10.37,2013-04-10 16:23:00,
2013-04-10 12:28:00,80.2,62.6,30.09,SSE,154,4.0,4.0,55,0.00,FEW,OVC,0.00,WeatherDisplay:10.37,2013-04-10 16:28:00,
2013-04-10 12:33:00,80.1,62.0,30.09,South,177,3.4,3.4,54,0.00,FEW,OVC,0.00,WeatherDisplay:10.37,2013-04-10 16:33:00,
2013-04-10 12:38:00,79.8,63.2,30.09,South,173,2.3,2.3,57,0.00,FEW,OVC,0.00,WeatherDisplay:10.37,2013-04-10 16:38:00,
2013-04-10 12:43:00,80.7,63.5,30.09,SSE,168,3.4,3.4,56,0.00,FEW,OVC,0.00,WeatherDisplay:10.37,2013-04-10 16:43:00,
2013-04-10 12:48:00,80.4,63.3,30.09,SSE,151,3.4,3.4,56,0.00,FEW,OVC,0.00,WeatherDisplay:10.37,2013-04-10 16:48:00,
2013-04-10 12:53:00,80.4,64.3,30.08,NE,45,2.3,2.3,58,0.00,FEW,OVC,0.00,WeatherDisplay:10.37,2013-04-10 16:53:00,
2013-04-10 12:58:00,80.9,62.7,30.08,SSW,199,3.4,3.4,54,0.00,FEW,OVC,0.00,WeatherDisplay:10.37,2013-04-10 16:58:00,
2013-04-10 13:03:00,81.1,63.4,30.08,SSE,166,3.4,3.4,55,0.00,CLR,OVC,0.00,WeatherDisplay:10.37,2013-04-10 17:03:00,
2013-04-10 13:08:00,81.5,62.7,30.07,SE,138,3.4,3.4,53,0.00,CLR,OVC,0.00,WeatherDisplay:10.37,2013-04-10 17:08:00,
2013-04-10 13:13:00,81.0,63.3,30.07,SW,223,1.1,1.1,55,0.00,CLR,OVC,0.00,WeatherDisplay:10.37,2013-04-10 17:13:00,
2013-04-10 13:18:00,81.5,62.7,30.07,SE,143,3.4,3.4,53,0.00,CLR,OVC,0.00,WeatherDisplay:10.37,2013-04-10 17:18:00,
2013-04-10 13:23:00,82.4,63.0,30.07,South,178,1.1,1.1,52,0.00,CLR,OVC,0.00,WeatherDisplay:10.37,2013-04-10 17:23:00,
2013-04-10 13:28:00,82.4,63.0,30.07,SSE,168,3.4,3.4,52,0.00,CLR,OVC,0.00,WeatherDisplay:10.37,2013-04-10 17:28:00,
2013-04-10 13:33:00,82.1,62.7,30.06,South,173,2.3,2.3,52,0.00,CLR,OVC,0.00,WeatherDisplay:10.37,2013-04-10 17:33:00,
2013-04-10 13:38:00,82.1,61.6,30.06,SSE,156,1.1,1.1,50,0.00,CLR,OVC,0.00,WeatherDisplay:10.37,2013-04-10 17:38:00,
2013-04-10 13:43:00,82.2,63.9,30.06,SSE,165,3.4,3.4,54,0.00,CLR,OVC,0.00,WeatherDisplay:10.37,2013-04-10 17:43:00,
2013-04-10 13:48:00,82.2,63.9,30.06,South,180,3.4,3.4,54,0.00,CLR,OVC,0.00,WeatherDisplay:10.37,2013-04-10 17:48:00,
2013-04-10 13:53:00,82.1,63.8,30.06,SSE,161,3.4,3.4,54,0.00,CLR,OVC,0.00,WeatherDisplay:10.37,2013-04-10 17:53:00,
2013-04-10 13:58:00,82.6,63.7,30.06,ESE,109,3.0,3.0,53,0.00,CLR,OVC,0.00,WeatherDisplay:10.37,2013-04-10 17:58:00,
2013-04-10 14:03:00,82.3,62.9,30.06,SSE,157,2.3,2.3,52,0.00,CLR,OVC,0.00,WeatherDisplay:10.37,2013-04-10 18:03:00,
2013-04-10 14:08:00,82.2,63.4,30.06,SSE,161,2.3,2.3,53,0.00,CLR,OVC,0.00,WeatherDisplay:10.37,2013-04-10 18:08:00,
2013-04-10 14:13:00,82.5,64.2,30.06,South,184,2.3,2.3,54,0.00,CLR,OVC,0.00,WeatherDisplay:10.37,2013-04-10 18:13:00,
2013-04-10 14:18:00,82.7,63.3,30.06,SE,142,1.1,1.1,52,0.00,CLR,OVC,0.00,WeatherDisplay:10.37,2013-04-10 18:18:00,
2013-04-10 14:23:00,82.9,62.9,30.05,South,170,2.3,2.3,51,0.00,CLR,OVC,0.00,WeatherDisplay:10.37,2013-04-10 18:23:00,
2013-04-10 14:28:00,82.9,63.5,30.05,South,182,2.3,2.3,52,0.00,CLR,OVC,0.00,WeatherDisplay:10.37,2013-04-10 18:28:00,
2013-04-10 14:33:00,83.4,62.8,30.05,SSE,166,3.4,3.4,50,0.00,CLR,OVC,0.00,WeatherDisplay:10.37,2013-04-10 18:33:00,
2013-04-10 14:38:00,83.5,62.9,30.05,South,187,1.1,0.0,50,0.00,CLR,OVC,0.00,WeatherDisplay:10.37,2013-04-10 18:38:00,
2013-04-10 14:43:00,83.2,62.6,30.05,SSE,156,1.1,1.1,50,0.00,CLR,OVC,0.00,WeatherDisplay:10.37,2013-04-10 18:43:00,
2013-04-10 14:48:00,82.9,62.9,30.05,SSE,159,1.1,1.1,51,0.00,CLR,OVC,0.00,WeatherDisplay:10.37,2013-04-10 18:48:00,
2013-04-10 14:53:00,83.0,63.0,30.04,South,185,1.1,1.1,51,0.00,CLR,OVC,0.00,WeatherDisplay:10.37,2013-04-10 18:53:00,
2013-04-10 14:58:00,83.2,63.7,30.05,NW,320,1.1,1.1,52,0.00,CLR,OVC,0.00,WeatherDisplay:10.37,2013-04-10 18:58:00,
2013-04-10 15:03:00,82.9,63.5,30.04,East,97,1.1,1.1,52,0.00,CLR,OVC,0.00,WeatherDisplay:10.37,2013-04-10 19:03:00,
2013-04-10 15:08:00,82.8,63.9,30.04,SE,144,0.0,0.0,53,0.00,CLR,OVC,0.00,WeatherDisplay:10.37,2013-04-10 19:08:00,
2013-04-10 15:13:00,82.9,64.5,30.04,NE,36,2.3,2.3,54,0.00,CLR,OVC,0.00,WeatherDisplay:10.37,2013-04-10 19:13:00,
2013-04-10 15:18:00,82.7,64.4,30.04,ESE,104,1.1,1.1,54,0.00,CLR,OVC,0.00,WeatherDisplay:10.37,2013-04-10 19:18:00,
2013-04-10 15:23:00,82.5,64.7,30.04,ENE,67,1.1,1.1,55,0.00,CLR,OVC,0.00,WeatherDisplay:10.37,2013-04-10 19:23:00,
2013-04-10 15:28:00,82.3,64.5,30.04,East,81,0.0,0.0,55,0.00,CLR,OVC,0.00,WeatherDisplay:10.37,2013-04-10 19:28:00,
2013-04-10 15:33:00,82.3,65.0,30.04,East,80,0.0,0.0,56,0.00,CLR,OVC,0.00,WeatherDisplay:10.37,2013-04-10 19:33:00,
2013-04-10 15:38:00,82.2,64.4,30.04,NNW,330,0.0,0.0,55,0.00,CLR,OVC,0.00,WeatherDisplay:10.37,2013-04-10 19:38:00,
2013-04-10 15:43:00,82.2,64.4,30.03,NW,316,0.0,0.0,55,0.00,CLR,OVC,0.00,WeatherDisplay:10.37,2013-04-10 19:43:00,
2013-04-10 15:48:00,82.2,64.9,30.03,NNE,12,0.0,0.0,56,0.00,CLR,OVC,0.00,WeatherDisplay:10.37,2013-04-10 19:48:00,
2013-04-10 15:53:00,82.5,65.2,30.03,ESE,114,1.1,1.1,56,0.00,CLR,OVC,0.00,WeatherDisplay:10.37,2013-04-10 19:53:00,
2013-04-10 15:58:00,83.0,64.6,30.02,NE,49,3.4,3.4,54,0.00,CLR,OVC,0.00,WeatherDisplay:10.37,2013-04-10 19:58:00,
2013-04-10 16:03:00,83.4,65.5,30.02,SSW,203,1.1,1.1,55,0.00,CLR,OVC,0.00,WeatherDisplay:10.37,2013-04-10 20:03:00,
2013-04-10 16:08:00,84.2,65.8,30.02,SSE,159,2.3,2.3,54,0.00,CLR,OVC,0.00,WeatherDisplay:10.37,2013-04-10 20:08:00,
2013-04-10 16:13:00,84.4,65.4,30.01,East,100,3.4,3.4,53,0.00,CLR,OVC,0.00,WeatherDisplay:10.37,2013-04-10 20:13:00,
2013-04-10 16:18:00,84.5,64.9,30.01,SSE,161,3.4,3.4,52,0.00,CLR,OVC,0.00,WeatherDisplay:10.37,2013-04-10 20:18:00,
2013-04-10 16:19:00,84.4,64.9,30.01,South,169,2.3,2.3,52,0.00,CLR,OVC,0.00,WeatherDisplay:10.37,2013-04-10 20:19:00,
2013-04-10 16:23:00,84.4,64.9,30.01,South,169,2.3,2.3,52,0.00,CLR,OVC,0.00,WeatherDisplay:10.37,2013-04-10 20:23:00,
2013-04-10 16:28:00,84.4,64.9,30.01,South,169,2.3,2.3,52,0.00,CLR,OVC,0.00,WeatherDisplay:10.37,2013-04-10 20:28:00,
2013-04-10 16:33:00,83.8,66.4,30.01,NE,54,2.3,2.3,56,0.00,CLR,OVC,0.00,WeatherDisplay:10.37,2013-04-10 20:33:00,
2013-04-10 16:38:00,83.9,65.5,30.00,NW,306,2.3,2.3,54,0.00,CLR,OVC,0.00,WeatherDisplay:10.37,2013-04-10 20:38:00,
2013-04-10 16:43:00,84.3,64.8,30.01,SE,141,1.1,1.1,52,0.00,CLR,OVC,0.00,WeatherDisplay:10.37,2013-04-10 20:43:00,
2013-04-10 16:48:00,84.1,66.2,30.01,WSW,251,1.1,1.1,55,0.00,CLR,OVC,0.00,WeatherDisplay:10.37,2013-04-10 20:48:00,
2013-04-10 16:53:00,83.6,66.8,30.01,South,191,1.1,1.1,57,0.00,CLR,OVC,0.00,WeatherDisplay:10.37,2013-04-10 20:53:00,
2013-04-10 16:58:00,83.4,67.6,30.00,WSW,249,1.1,1.1,59,0.00,CLR,OVC,0.00,WeatherDisplay:10.37,2013-04-10 20:58:00,
2013-04-10 17:03:00,83.0,67.2,30.00,NNW,344,0.0,0.0,59,0.00,FEW,OVC,0.00,WeatherDisplay:10.37,2013-04-10 21:03:00,
2013-04-10 17:08:00,82.7,67.4,30.00,NE,40,2.3,0.0,60,0.00,FEW,OVC,0.00,WeatherDisplay:10.37,2013-04-10 21:08:00,
2013-04-10 17:13:00,82.4,67.6,30.00,ENE,67,1.0,1.0,61,0.00,FEW,OVC,0.00,WeatherDisplay:10.37,2013-04-10 21:13:00,
2013-04-10 17:18:00,82.2,67.4,30.00,NNE,16,3.4,3.4,61,0.00,FEW,OVC,0.00,WeatherDisplay:10.37,2013-04-10 21:18:00,
2013-04-10 17:23:00,82.1,67.3,29.99,NNE,33,1.0,1.0,61,0.00,FEW,OVC,0.00,WeatherDisplay:10.37,2013-04-10 21:23:00,
2013-04-10 17:28:00,82.1,67.8,30.00,North,3,1.1,0.0,62,0.00,FEW,OVC,0.00,WeatherDisplay:10.37,2013-04-10 21:28:00,
2013-04-10 17:33:00,82.0,67.2,30.00,NNE,22,1.1,1.1,61,0.00,FEW,OVC,0.00,WeatherDisplay:10.37,2013-04-10 21:33:00,
2013-04-10 17:38:00,82.2,67.4,30.00,NNE,30,1.1,1.1,61,0.00,FEW,OVC,0.00,WeatherDisplay:10.37,2013-04-10 21:38:00,
2013-04-10 17:43:00,82.7,67.4,29.99,NNE,19,1.1,1.2,60,0.00,FEW,OVC,0.00,WeatherDisplay:10.37,2013-04-10 21:43:00,
2013-04-10 17:48:00,83.0,67.7,29.99,NNE,24,1.1,1.1,60,0.00,FEW,OVC,0.00,WeatherDisplay:10.37,2013-04-10 21:48:00,
2013-04-10 17:53:00,83.3,68.0,30.00,NNE,19,1.1,1.1,60,0.00,FEW,OVC,0.00,WeatherDisplay:10.37,2013-04-10 21:53:00,
2013-04-10 17:58:00,83.4,68.1,29.99,South,174,1.1,1.1,60,0.00,FEW,OVC,0.00,WeatherDisplay:10.37,2013-04-10 21:58:00,
2013-04-10 18:03:00,83.2,67.9,29.99,SSE,166,2.3,2.3,60,0.00,BKN,OVC,0.00,WeatherDisplay:10.37,2013-04-10 22:03:00,
2013-04-10 18:08:00,83.0,68.2,30.00,South,170,2.3,2.3,61,0.00,BKN,OVC,0.00,WeatherDisplay:10.37,2013-04-10 22:08:00,
2013-04-10 18:13:00,82.5,67.7,30.00,SSE,161,2.3,2.3,61,0.00,BKN,OVC,0.00,WeatherDisplay:10.37,2013-04-10 22:13:00,
2013-04-10 18:18:00,82.0,67.7,30.00,SSW,206,1.1,1.1,62,0.00,BKN,OVC,0.00,WeatherDisplay:10.37,2013-04-10 22:18:00,
2013-04-10 18:23:00,81.6,67.8,30.00,WSW,245,0.0,0.0,63,0.00,BKN,OVC,0.00,WeatherDisplay:10.37,2013-04-10 22:23:00,
2013-04-10 18:28:00,81.2,67.9,30.00,WSW,246,0.0,0.0,64,0.00,BKN,OVC,0.00,WeatherDisplay:10.37,2013-04-10 22:28:00,
2013-04-10 18:33:00,80.9,67.6,30.00,NNE,28,1.1,1.1,64,0.00,BKN,OVC,0.00,WeatherDisplay:10.37,2013-04-10 22:33:00,
2013-04-10 18:38:00,80.5,67.6,29.99,NNW,344,3.0,3.0,65,0.00,BKN,OVC,0.00,WeatherDisplay:10.37,2013-04-10 22:38:00,
2013-04-10 18:43:00,80.2,67.4,29.99,North,353,1.1,1.1,65,0.00,BKN,OVC,0.00,WeatherDisplay:10.37,2013-04-10 22:43:00,
2013-04-10 18:48:00,80.0,67.6,29.99,North,353,1.1,1.1,66,0.00,BKN,OVC,0.00,WeatherDisplay:10.37,2013-04-10 22:48:00,
2013-04-10 18:53:00,79.7,67.3,30.00,SSW,211,1.1,1.1,66,0.00,BKN,OVC,0.00,WeatherDisplay:10.37,2013-04-10 22:53:00,
2013-04-10 18:58:00,79.5,67.6,30.00,SSE,162,2.3,2.3,67,0.00,BKN,OVC,0.00,WeatherDisplay:10.37,2013-04-10 22:58:00,
2013-04-10 19:03:00,79.4,67.5,30.00,ENE,71,1.1,1.1,67,0.00,BKN,OVC,0.00,WeatherDisplay:10.37,2013-04-10 23:03:00,
2013-04-10 19:08:00,79.3,67.8,30.00,North,5,1.0,0.0,68,0.00,BKN,OVC,0.00,WeatherDisplay:10.37,2013-04-10 23:08:00,
2013-04-10 19:13:00,79.2,67.7,30.00,SSW,207,2.3,2.3,68,0.00,BKN,OVC,0.00,WeatherDisplay:10.37,2013-04-10 23:13:00,
2013-04-10 19:18:00,78.9,67.9,30.00,SSW,203,1.1,1.1,69,0.00,CLR,OVC,0.00,WeatherDisplay:10.37,2013-04-10 23:18:00,
2013-04-10 19:23:00,78.7,68.1,29.99,SSW,213,0.0,0.0,70,0.00,CLR,OVC,0.00,WeatherDisplay:10.37,2013-04-10 23:23:00,
2013-04-10 19:28:00,78.4,67.8,29.99,ENE,70,1.1,0.0,70,0.00,CLR,OVC,0.00,WeatherDisplay:10.37,2013-04-10 23:28:00,
2013-04-10 19:33:00,78.1,67.9,29.99,NW,306,1.1,1.1,71,0.00,CLR,OVC,0.00,WeatherDisplay:10.37,2013-04-10 23:33:00,
2013-04-10 19:38:00,77.9,67.7,29.99,NW,306,1.0,0.0,71,0.00,CLR,OVC,0.00,WeatherDisplay:10.37,2013-04-10 23:38:00,
2013-04-10 19:43:00,77.6,67.9,29.99,SW,218,1.1,1.1,72,0.00,CLR,OVC,0.00,WeatherDisplay:10.37,2013-04-10 23:43:00,
2013-04-10 19:48:00,77.3,68.0,29.99,SW,218,1.1,1.1,73,0.00,CLR,OVC,0.00,WeatherDisplay:10.37,2013-04-10 23:48:00,
2013-04-10 19:53:00,77.1,67.8,29.99,SW,218,0.0,0.0,73,0.00,CLR,OVC,0.00,WeatherDisplay:10.37,2013-04-10 23:53:00,
2013-04-10 19:58:00,76.8,67.9,29.99,SSW,202,1.1,1.1,74,0.00,CLR,OVC,0.00,WeatherDisplay:10.37,2013-04-10 23:58:00,
2013-04-10 20:03:00,76.5,68.0,30.00,SSW,204,0.0,0.0,75,0.00,CLR,OVC,0.00,WeatherDisplay:10.37,2013-04-11 00:03:00,
2013-04-10 20:08:00,76.2,67.7,30.00,SSW,204,0.0,0.0,75,0.00,CLR,OVC,0.00,WeatherDisplay:10.37,2013-04-11 00:08:00,
2013-04-10 20:13:00,76.0,67.9,30.00,SSW,204,0.0,0.0,76,0.00,CLR,OVC,0.00,WeatherDisplay:10.37,2013-04-11 00:13:00,
2013-04-10 20:18:00,75.7,67.6,30.00,SSW,208,0.0,0.0,76,0.00,CLR,OVC,0.00,WeatherDisplay:10.37,2013-04-11 00:18:00,
2013-04-10 20:23:00,75.4,67.7,30.00,WSW,245,1.1,0.0,77,0.00,CLR,OVC,0.00,WeatherDisplay:10.37,2013-04-11 00:23:00,
2013-04-10 20:28:00,75.3,68.0,30.00,SW,222,1.1,1.1,78,0.00,CLR,OVC,0.00,WeatherDisplay:10.37,2013-04-11 00:28:00,
2013-04-10 20:33:00,75.3,68.3,30.00,SSE,166,3.4,3.4,79,0.00,CLR,OVC,0.00,WeatherDisplay:10.37,2013-04-11 00:33:00,
2013-04-10 20:38:00,75.2,68.2,30.00,South,177,2.3,2.3,79,0.00,CLR,OVC,0.00,WeatherDisplay:10.37,2013-04-11 00:38:00,
2013-04-10 20:43:00,75.0,68.4,30.00,SSE,167,1.1,1.1,80,0.00,CLR,OVC,0.00,WeatherDisplay:10.37,2013-04-11 00:43:00,
2013-04-10 20:48:00,74.9,68.3,30.01,South,187,1.1,1.1,80,0.00,CLR,OVC,0.00,WeatherDisplay:10.37,2013-04-11 00:48:00,
2013-04-10 20:53:00,74.8,68.2,30.01,SSW,205,1.1,1.1,80,0.00,CLR,OVC,0.00,WeatherDisplay:10.37,2013-04-11 00:53:00,
2013-04-10 20:58:00,74.6,68.4,30.01,East,97,1.1,1.1,81,0.00,CLR,OVC,0.00,WeatherDisplay:10.37,2013-04-11 00:58:00,
2013-04-10 21:03:00,74.5,68.3,30.01,SSE,157,1.1,1.1,81,0.00,CLR,OVC,0.00,WeatherDisplay:10.37,2013-04-11 01:03:00,
2013-04-10 21:08:00,74.4,68.5,30.01,SSW,192,1.1,1.1,82,0.00,CLR,OVC,0.00,WeatherDisplay:10.37,2013-04-11 01:08:00,
2013-04-10 21:13:00,74.4,68.5,30.01,SSW,194,2.3,2.3,82,0.00,CLR,OVC,0.00,WeatherDisplay:10.37,2013-04-11 01:13:00,
2013-04-10 21:18:00,74.3,68.4,30.02,South,190,1.1,1.1,82,0.00,CLR,OVC,0.00,WeatherDisplay:10.37,2013-04-11 01:18:00,
2013-04-10 21:23:00,74.3,68.4,30.02,South,169,1.1,1.1,82,0.00,CLR,OVC,0.00,WeatherDisplay:10.37,2013-04-11 01:23:00,
2013-04-10 21:28:00,74.4,68.5,30.02,SSE,162,0.0,0.0,82,0.00,CLR,OVC,0.00,WeatherDisplay:10.37,2013-04-11 01:28:00,
2013-04-10 21:33:00,74.3,68.4,30.02,SSE,161,1.1,1.1,82,0.00,CLR,OVC,0.00,WeatherDisplay:10.37,2013-04-11 01:33:00,
2013-04-10 21:34:00,74.3,68.4,30.02,SSE,161,1.1,1.1,82,0.00,CLR,OVC,0.00,WeatherDisplay:10.37,2013-04-11 01:34:00,
2013-04-10 21:38:00,74.3,68.4,30.02,SSE,161,1.1,1.1,82,0.00,CLR,OVC,0.00,WeatherDisplay:10.37,2013-04-11 01:38:00,
2013-04-10 21:43:00,74.3,68.4,30.02,SSE,161,1.1,1.1,82,0.00,CLR,OVC,0.00,WeatherDisplay:10.37,2013-04-11 01:43:00,
2013-04-10 21:48:00,74.2,68.7,30.02,SSE,166,1.1,1.1,83,0.00,CLR,OVC,0.00,WeatherDisplay:10.37,2013-04-11 01:48:00,
2013-04-10 21:53:00,74.2,68.7,30.01,SSE,159,2.0,2.0,83,0.00,CLR,OVC,0.00,WeatherDisplay:10.37,2013-04-11 01:53:00,
2013-04-10 21:58:00,74.1,68.6,30.02,South,171,1.1,1.1,83,0.00,CLR,OVC,0.00,WeatherDisplay:10.37,2013-04-11 01:58:00,
2013-04-10 22:03:00,73.9,68.4,30.02,SSE,168,1.1,1.1,83,0.00,CLR,OVC,0.00,WeatherDisplay:10.37,2013-04-11 02:03:00,
2013-04-10 22:08:00,73.8,68.3,30.02,SW,230,1.1,0.0,83,0.00,CLR,OVC,0.00,WeatherDisplay:10.37,2013-04-11 02:08:00,
2013-04-10 22:13:00,73.6,68.5,30.02,SW,230,1.1,0.0,84,0.00,CLR,OVC,0.00,WeatherDisplay:10.37,2013-04-11 02:13:00,
2013-04-10 22:18:00,73.4,68.3,30.02,SW,230,0.0,0.2,84,0.00,CLR,OVC,0.00,WeatherDisplay:10.37,2013-04-11 02:18:00,
2013-04-10 22:23:00,73.2,68.1,30.02,SW,230,0.0,0.1,84,0.00,CLR,OVC,0.00,WeatherDisplay:10.37,2013-04-11 02:23:00,
2013-04-10 22:28:00,73.1,68.3,30.02,SW,224,1.1,1.1,85,0.00,CLR,OVC,0.00,WeatherDisplay:10.37,2013-04-11 02:28:00,
2013-04-10 22:33:00,73.1,68.3,30.02,SW,223,1.1,1.1,85,0.00,CLR,OVC,0.00,WeatherDisplay:10.37,2013-04-11 02:33:00,
2013-04-10 22:38:00,72.9,68.1,30.02,South,191,0.0,0.0,85,0.00,CLR,OVC,0.00,WeatherDisplay:10.37,2013-04-11 02:38:00,
2013-04-10 22:43:00,72.8,68.0,30.02,SW,222,1.1,1.1,85,0.00,CLR,OVC,0.00,WeatherDisplay:10.37,2013-04-11 02:43:00,
2013-04-10 22:48:00,72.8,68.4,30.02,South,173,1.1,1.1,86,0.00,CLR,OVC,0.00,WeatherDisplay:10.37,2013-04-11 02:48:00,
2013-04-10 22:53:00,72.9,68.5,30.02,South,171,1.1,1.1,86,0.00,CLR,OVC,0.00,WeatherDisplay:10.37,2013-04-11 02:53:00,
2013-04-10 22:58:00,72.9,68.5,30.01,SSE,162,2.3,2.3,86,0.00,CLR,OVC,0.00,WeatherDisplay:10.37,2013-04-11 02:58:00,
2013-04-10 23:03:00,73.0,68.6,30.01,SSE,161,2.3,2.3,86,0.00,CLR,OVC,0.00,WeatherDisplay:10.37,2013-04-11 03:03:00,
2013-04-10 23:08:00,73.0,68.6,30.01,SSE,165,2.3,2.3,86,0.00,CLR,OVC,0.00,WeatherDisplay:10.37,2013-04-11 03:08:00,
2013-04-10 23:13:00,73.0,68.6,30.01,SSE,166,1.1,1.1,86,0.00,CLR,OVC,0.00,WeatherDisplay:10.37,2013-04-11 03:13:00,
2013-04-10 23:18:00,73.0,68.6,30.01,South,177,1.1,1.1,86,0.00,CLR,OVC,0.00,WeatherDisplay:10.37,2013-04-11 03:18:00,
2013-04-10 23:23:00,72.9,68.5,30.01,SSE,167,2.3,2.3,86,0.00,CLR,OVC,0.00,WeatherDisplay:10.37,2013-04-11 03:23:00,
2013-04-10 23:28:00,72.8,68.4,30.01,SSE,164,1.1,1.1,86,0.00,CLR,OVC,0.00,WeatherDisplay:10.37,2013-04-11 03:28:00,
2013-04-10 23:33:00,72.7,68.6,30.01,SSE,165,1.1,0.0,87,0.00,CLR,OVC,0.00,WeatherDisplay:10.37,2013-04-11 03:33:00,
2013-04-10 23:38:00,72.7,68.6,30.01,South,176,1.1,1.1,87,0.00,CLR,OVC,0.00,WeatherDisplay:10.37,2013-04-11 03:38:00,
2013-04-10 23:43:00,72.6,68.5,30.01,South,169,2.3,2.3,87,0.00,CLR,OVC,0.00,WeatherDisplay:10.37,2013-04-11 03:43:00,
2013-04-10 23:48:00,72.6,68.5,30.00,SSE,161,1.1,1.1,87,0.00,CLR,OVC,0.00,WeatherDisplay:10.37,2013-04-11 03:48:00,
2013-04-10 23:53:00,72.5,68.4,30.01,SSE,165,1.1,1.1,87,0.00,CLR,OVC,0.00,WeatherDisplay:10.37,2013-04-11 03:53:00,
2013-04-10 23:58:00,72.5,68.4,30.01,SSE,158,1.1,1.1,87,0.00,CLR,OVC,0.00,WeatherDisplay:10.37,2013-04-11 03:58:00,